createdAt,value
2022-08-11T00:00:37.775Z,100.00
2022-08-11T00:03:09.066Z,100.00
2022-08-11T00:05:51.089Z,100.00
2022-08-11T00:08:25.734Z,100.00
2022-08-11T00:11:06.226Z,100.00
2022-08-11T00:13:37.354Z,100.00
2022-08-11T00:16:11.663Z,100.00
2022-08-11T00:18:42.797Z,100.00
2022-08-11T00:21:12.362Z,100.00
2022-08-11T00:23:46.575Z,100.00
2022-08-11T00:26:16.159Z,100.00
2022-08-11T00:28:44.779Z,100.00
2022-08-11T00:31:24.539Z,100.00
2022-08-11T00:33:53.595Z,100.00
2022-08-11T00:36:42.881Z,100.00
2022-08-11T00:39:14.169Z,100.00
2022-08-11T00:42:02.625Z,100.00
2022-08-11T00:44:49.884Z,100.00
2022-08-11T00:47:35.942Z,100.00
2022-08-11T00:50:07.321Z,100.00
2022-08-11T00:53:01.787Z,100.00
2022-08-11T00:55:55.900Z,100.00
2022-08-11T00:59:02.491Z,100.00
2022-08-11T01:01:38.668Z,100.00
2022-08-11T01:04:44.469Z,100.00
2022-08-11T01:08:00.512Z,100.00
2022-08-11T01:10:42.043Z,100.00
2022-08-11T01:13:19.561Z,100.00
2022-08-11T01:15:55.778Z,100.00
2022-08-11T01:18:59.963Z,100.00
2022-08-11T01:22:01.568Z,100.00
2022-08-11T01:24:52.071Z,100.00
2022-08-11T01:28:04.445Z,100.00
2022-08-11T01:30:57.606Z,100.00
2022-08-11T01:33:50.886Z,100.00
2022-08-11T01:36:37.932Z,100.00
2022-08-11T01:39:27.641Z,100.00
2022-08-11T01:42:59.490Z,100.00
2022-08-11T01:45:48.474Z,100.00
2022-08-11T01:48:44.027Z,100.00
2022-08-11T01:51:45.098Z,100.00
2022-08-11T01:54:21.699Z,100.00
2022-08-11T01:57:10.053Z,100.00
2022-08-11T01:59:50.004Z,100.00
2022-08-11T02:02:47.837Z,100.00
2022-08-11T02:05:34.944Z,100.00
2022-08-11T02:08:35.721Z,100.00
2022-08-11T02:11:35.492Z,100.00
2022-08-11T02:14:19.316Z,100.00
2022-08-11T02:16:59.216Z,100.00
2022-08-11T02:20:09.474Z,100.00
2022-08-11T02:23:13.006Z,100.00
2022-08-11T02:26:07.742Z,100.00
2022-08-11T02:29:02.755Z,100.00
2022-08-11T02:32:15.671Z,100.00
2022-08-11T02:35:01.820Z,100.00
2022-08-11T02:37:45.313Z,100.00
2022-08-11T02:40:28.153Z,100.00
2022-08-11T02:43:10.325Z,100.00
2022-08-11T02:46:18.621Z,100.00
2022-08-11T02:49:36.541Z,100.00
2022-08-11T02:52:49.987Z,100.00
2022-08-11T02:55:48.008Z,100.00
2022-08-11T02:59:12.014Z,100.00
2022-08-11T03:02:04.663Z,100.00
2022-08-11T03:04:37.694Z,100.00
2022-08-11T03:07:28.892Z,100.00
2022-08-11T03:10:15.189Z,100.00
2022-08-11T03:13:05.164Z,100.00
2022-08-11T03:16:06.681Z,100.00
2022-08-11T03:18:47.282Z,100.00
2022-08-11T03:21:24.306Z,100.00
2022-08-11T03:24:22.635Z,100.00
2022-08-11T03:27:22.192Z,100.00
2022-08-11T03:30:32.225Z,100.00
2022-08-11T03:33:34.034Z,100.00
2022-08-11T03:37:15.694Z,100.00
2022-08-11T03:40:09.027Z,100.00
2022-08-11T03:43:03.424Z,100.00
2022-08-11T03:45:44.516Z,100.00
2022-08-11T03:48:28.012Z,100.00
2022-08-11T03:51:13.464Z,100.00
2022-08-11T03:53:49.699Z,100.00
2022-08-11T03:56:36.355Z,100.00
2022-08-11T03:59:29.213Z,100.00
2022-08-11T04:02:06.714Z,100.00
2022-08-11T04:04:51.212Z,100.00
2022-08-11T04:07:57.386Z,100.00
2022-08-11T04:10:44.234Z,100.00
2022-08-11T04:13:50.323Z,100.00
2022-08-11T04:16:47.555Z,100.00
2022-08-11T04:19:37.838Z,100.00
2022-08-11T04:22:48.429Z,100.00
2022-08-11T04:25:57.956Z,100.00
2022-08-11T04:29:03.708Z,100.00
2022-08-11T04:31:51.402Z,100.00
2022-08-11T04:34:37.080Z,100.00
2022-08-11T04:37:34.255Z,100.00
2022-08-11T04:40:24.703Z,100.00
2022-08-11T04:43:20.949Z,100.00
2022-08-11T04:46:12.303Z,100.00
2022-08-11T04:49:37.175Z,100.00
2022-08-11T04:52:54.406Z,100.00
2022-08-11T04:56:12.574Z,100.00
2022-08-11T04:59:44.535Z,100.00
2022-08-11T05:02:44.697Z,100.00
2022-08-11T05:05:33.614Z,100.00
2022-08-11T05:08:05.103Z,100.00
2022-08-11T05:11:10.608Z,100.00
2022-08-11T05:14:13.395Z,100.00
2022-08-11T05:17:11.086Z,100.00
2022-08-11T05:20:03.649Z,100.00
2022-08-11T05:22:52.263Z,100.00
2022-08-11T05:26:44.926Z,100.00
2022-08-11T05:29:19.882Z,100.00
2022-08-11T05:32:20.094Z,100.00
2022-08-11T05:34:54.153Z,100.00
2022-08-11T05:37:38.958Z,100.00
2022-08-11T05:40:32.518Z,100.00
2022-08-11T05:43:31.614Z,99.67
2022-08-11T05:46:21.053Z,100.00
2022-08-11T05:49:10.059Z,99.51
2022-08-11T05:52:05.283Z,97.06
2022-08-11T05:55:06.962Z,96.51
2022-08-11T05:57:51.148Z,97.80
2022-08-11T06:00:20.878Z,98.99
2022-08-11T06:02:55.486Z,99.63
2022-08-11T06:05:38.520Z,98.93
2022-08-11T06:08:14.730Z,96.72
2022-08-11T06:10:45.264Z,95.38
2022-08-11T06:13:17.994Z,93.58
2022-08-11T06:15:53.229Z,94.67
2022-08-11T06:18:22.526Z,95.45
2022-08-11T06:20:58.386Z,94.85
2022-08-11T06:23:32.833Z,95.34
2022-08-11T06:26:10.301Z,95.40
2022-08-11T06:28:40.741Z,96.13
2022-08-11T06:31:13.197Z,96.48
2022-08-11T06:33:52.923Z,97.57
2022-08-11T06:36:51.404Z,97.94
2022-08-11T06:39:33.448Z,98.71
2022-08-11T06:42:48.145Z,98.98
2022-08-11T06:45:40.653Z,99.25
2022-08-11T06:48:21.167Z,98.13
2022-08-11T06:51:14.597Z,97.44
2022-08-11T06:53:57.617Z,96.01
2022-08-11T06:57:26.316Z,96.29
2022-08-11T07:00:04.972Z,97.01
2022-08-11T07:02:46.442Z,97.20
2022-08-11T07:05:27.593Z,96.75
2022-08-11T07:08:46.428Z,95.67
2022-08-11T07:12:11.577Z,95.35
2022-08-11T07:15:07.773Z,95.78
2022-08-11T07:17:49.537Z,95.15
2022-08-11T07:20:37.424Z,95.38
2022-08-11T07:23:28.155Z,95.30
2022-08-11T07:26:19.130Z,94.49
2022-08-11T07:28:55.989Z,92.79
2022-08-11T07:31:30.333Z,92.03
2022-08-11T07:34:25.551Z,91.34
2022-08-11T07:36:56.752Z,91.43
2022-08-11T07:39:32.028Z,91.21
2022-08-11T07:42:06.719Z,92.65
2022-08-11T07:44:59.306Z,90.88
2022-08-11T07:47:47.456Z,91.68
2022-08-11T07:50:34.944Z,92.08
2022-08-11T07:53:05.057Z,92.73
2022-08-11T07:55:50.227Z,92.29
2022-08-11T07:58:45.802Z,92.35
2022-08-11T08:01:42.771Z,93.65
2022-08-11T08:04:33.904Z,93.94
2022-08-11T08:07:23.353Z,93.76
2022-08-11T08:10:15.861Z,93.55
2022-08-11T08:13:04.057Z,93.63
2022-08-11T08:15:51.502Z,93.98
2022-08-11T08:18:26.305Z,94.43
2022-08-11T08:21:11.983Z,92.69
2022-08-11T08:23:43.298Z,92.25
2022-08-11T08:26:34.139Z,92.55
2022-08-11T08:29:25.169Z,91.36
2022-08-11T08:31:56.088Z,90.64
2022-08-11T08:34:25.879Z,90.34
2022-08-11T08:36:56.083Z,90.16
2022-08-11T08:39:24.694Z,88.96
2022-08-11T08:41:56.162Z,89.54
2022-08-11T08:44:38.479Z,89.36
2022-08-11T08:47:15.072Z,89.76
2022-08-11T08:50:16.385Z,88.68
2022-08-11T08:53:05.761Z,88.11
2022-08-11T08:55:34.695Z,86.69
2022-08-11T08:58:03.576Z,86.63
2022-08-11T09:00:41.158Z,86.28
2022-08-11T09:03:38.266Z,85.81
2022-08-11T09:05:59.246Z,85.56
2022-08-11T09:08:30.762Z,84.43
2022-08-11T09:11:19.128Z,81.89
2022-08-11T09:14:05.540Z,81.26
2022-08-11T09:16:39.585Z,78.77
2022-08-11T09:19:08.997Z,77.44
2022-08-11T09:21:49.076Z,76.58
2022-08-11T09:24:38.508Z,77.12
2022-08-11T09:27:08.569Z,74.50
2022-08-11T09:29:38.753Z,73.14
2022-08-11T09:32:08.452Z,72.91
2022-08-11T09:34:38.869Z,70.27
2022-08-11T09:37:53.601Z,68.26
2022-08-11T09:40:33.621Z,66.21
2022-08-11T09:43:24.600Z,66.33
2022-08-11T09:45:54.374Z,66.26
2022-08-11T09:48:24.936Z,66.84
2022-08-11T09:50:56.733Z,66.35
2022-08-11T09:53:36.808Z,65.31
2022-08-11T09:56:34.488Z,65.30
2022-08-11T09:59:04.604Z,63.60
2022-08-11T10:01:42.313Z,60.14
2022-08-11T10:04:16.619Z,58.06
2022-08-11T10:07:01.913Z,57.78
2022-08-11T10:09:40.822Z,56.48
2022-08-11T10:12:20.228Z,54.71
2022-08-11T10:15:15.707Z,58.17
2022-08-11T10:18:05.976Z,55.73
2022-08-11T10:20:37.932Z,53.77
2022-08-11T10:23:28.751Z,53.56
2022-08-11T10:26:17.210Z,53.71
2022-08-11T10:29:09.923Z,53.43
2022-08-11T10:31:57.698Z,53.09
2022-08-11T10:34:29.251Z,55.15
2022-08-11T10:37:03.113Z,53.54
2022-08-11T10:39:32.424Z,54.83
2022-08-11T10:42:30.214Z,53.74
2022-08-11T10:45:29.640Z,53.03
2022-08-11T10:47:58.811Z,52.69
2022-08-11T10:50:46.188Z,52.31
2022-08-11T10:53:34.490Z,51.33
2022-08-11T10:56:26.960Z,50.07
2022-08-11T10:58:59.621Z,49.98
2022-08-11T11:01:34.521Z,50.16
2022-08-11T11:04:14.690Z,49.14
2022-08-11T11:06:59.423Z,48.97
2022-08-11T11:09:32.472Z,49.02
2022-08-11T11:12:25.677Z,49.21
2022-08-11T11:15:17.711Z,49.08
2022-08-11T11:17:57.628Z,48.68
2022-08-11T11:20:36.054Z,48.29
2022-08-11T11:23:35.038Z,45.62
2022-08-11T11:26:27.612Z,46.95
2022-08-11T11:29:25.346Z,47.30
2022-08-11T11:32:02.682Z,47.41
2022-08-11T11:34:53.196Z,46.25
2022-08-11T11:37:23.993Z,46.46
2022-08-11T11:39:55.278Z,45.19
2022-08-11T11:42:24.045Z,45.87
2022-08-11T11:44:55.771Z,47.26
2022-08-11T11:47:25.657Z,47.80
2022-08-11T11:49:55.549Z,46.41
2022-08-11T11:52:24.229Z,49.55
2022-08-11T11:54:57.091Z,47.58
2022-08-11T11:57:58.664Z,48.81
2022-08-11T12:00:47.932Z,50.29
2022-08-11T12:03:18.060Z,51.68
2022-08-11T12:05:46.994Z,50.83
2022-08-11T12:08:16.296Z,50.50
2022-08-11T12:11:51.829Z,51.35
2022-08-11T12:14:25.759Z,51.62
2022-08-11T12:16:56.206Z,53.05
2022-08-11T12:19:28.684Z,53.43
2022-08-11T12:22:16.751Z,52.70
2022-08-11T12:25:04.626Z,54.15
2022-08-11T12:27:33.068Z,54.46
2022-08-11T12:30:05.912Z,55.65
2022-08-11T12:32:36.829Z,56.31
2022-08-11T12:35:06.722Z,56.65
2022-08-11T12:37:43.634Z,56.21
2022-08-11T12:40:42.886Z,57.19
2022-08-11T12:43:43.278Z,57.94
2022-08-11T12:46:21.654Z,56.88
2022-08-11T12:49:16.315Z,56.88
2022-08-11T12:52:14.084Z,57.19
2022-08-11T12:54:57.660Z,56.69
2022-08-11T12:57:55.600Z,57.69
2022-08-11T13:00:44.224Z,57.75
2022-08-11T13:03:33.221Z,58.46
2022-08-11T13:06:04.334Z,58.60
2022-08-11T13:08:39.726Z,58.86
2022-08-11T13:11:56.356Z,58.67
2022-08-11T13:14:17.320Z,58.12
2022-08-11T13:17:05.178Z,57.07
2022-08-11T13:19:34.920Z,56.37
2022-08-11T13:22:07.503Z,55.06
2022-08-11T13:24:37.239Z,55.26
2022-08-11T13:27:06.645Z,55.75
2022-08-11T13:29:36.091Z,55.78
2022-08-11T13:32:04.728Z,54.60
2022-08-11T13:34:35.335Z,55.84
2022-08-11T13:37:06.329Z,56.94
2022-08-11T13:39:37.255Z,57.99
2022-08-11T13:42:06.698Z,58.60
2022-08-11T13:44:37.848Z,56.56
2022-08-11T13:47:08.727Z,57.23
2022-08-11T13:49:40.269Z,58.67
2022-08-11T13:52:16.146Z,58.09
2022-08-11T13:54:48.266Z,59.93
2022-08-11T13:58:07.597Z,58.65
2022-08-11T14:00:15.849Z,60.51
2022-08-11T14:03:15.662Z,59.81
2022-08-11T14:05:52.098Z,60.67
2022-08-11T14:08:37.352Z,59.59
2022-08-11T14:12:21.775Z,59.93
2022-08-11T14:14:22.937Z,59.90
2022-08-11T14:16:57.781Z,59.17
2022-08-11T14:19:27.293Z,60.56
2022-08-11T14:22:10.053Z,60.78
2022-08-11T14:24:49.593Z,59.29
2022-08-11T14:28:22.033Z,59.39
2022-08-11T14:30:28.140Z,59.73
2022-08-11T14:32:57.552Z,59.53
2022-08-11T14:35:29.042Z,60.49
2022-08-11T14:37:59.193Z,61.07
2022-08-11T14:40:46.107Z,62.69
2022-08-11T14:44:12.474Z,63.16
2022-08-11T14:46:40.260Z,63.91
2022-08-11T14:49:09.906Z,63.83
2022-08-11T14:51:40.920Z,63.55
2022-08-11T14:54:30.289Z,64.08
2022-08-11T14:57:00.695Z,62.50
2022-08-11T14:59:30.067Z,62.32
2022-08-11T15:02:19.464Z,62.62
2022-08-11T15:04:48.094Z,63.65
2022-08-11T15:07:17.451Z,65.11
2022-08-11T15:10:11.844Z,67.15
2022-08-11T15:12:37.461Z,68.53
2022-08-11T15:15:26.338Z,68.20
2022-08-11T15:17:58.347Z,68.83
2022-08-11T15:20:47.380Z,69.03
2022-08-11T15:23:35.380Z,70.96
2022-08-11T15:26:15.581Z,72.21
2022-08-11T15:29:06.474Z,72.51
2022-08-11T15:31:56.173Z,71.93
2022-08-11T15:34:48.078Z,72.57
2022-08-11T15:37:29.561Z,72.18
2022-08-11T15:40:32.143Z,71.73
2022-08-11T15:43:29.422Z,70.06
2022-08-11T15:46:02.454Z,71.56
2022-08-11T15:48:33.925Z,72.79
2022-08-11T15:51:17.512Z,73.33
2022-08-11T15:53:59.983Z,72.91
2022-08-11T15:56:31.288Z,73.12
2022-08-11T15:59:42.782Z,73.72
2022-08-11T16:02:28.274Z,72.73
2022-08-11T16:04:58.103Z,72.61
2022-08-11T16:07:30.555Z,72.49
2022-08-11T16:10:18.723Z,72.40
2022-08-11T16:13:05.505Z,71.93
2022-08-11T16:16:00.677Z,70.97
2022-08-11T16:18:40.787Z,71.26
2022-08-11T16:21:34.230Z,71.55
2022-08-11T16:24:09.560Z,71.91
2022-08-11T16:27:08.099Z,72.43
2022-08-11T16:29:45.565Z,72.33
2022-08-11T16:32:23.773Z,67.88
2022-08-11T16:35:21.406Z,66.02
2022-08-11T16:38:11.289Z,65.72
2022-08-11T16:40:41.743Z,63.78
2022-08-11T16:43:33.338Z,62.39
2022-08-11T16:46:23.354Z,60.52
2022-08-11T16:48:53.779Z,60.08
2022-08-11T16:51:23.133Z,59.63
2022-08-11T16:54:04.282Z,59.44
2022-08-11T16:56:41.995Z,59.12
2022-08-11T16:59:18.494Z,59.06
2022-08-11T17:01:53.295Z,59.19
2022-08-11T17:04:47.053Z,59.57
2022-08-11T17:07:42.301Z,58.77
2022-08-11T17:10:52.424Z,59.09
2022-08-11T17:13:29.481Z,58.16
2022-08-11T17:16:13.110Z,58.08
2022-08-11T17:18:50.410Z,56.88
2022-08-11T17:21:20.637Z,57.22
2022-08-11T17:24:09.444Z,57.50
2022-08-11T17:26:56.938Z,58.12
2022-08-11T17:29:53.768Z,57.86
2022-08-11T17:32:56.031Z,58.80
2022-08-11T17:35:33.030Z,58.31
2022-08-11T17:38:04.027Z,58.88
2022-08-11T17:40:38.958Z,57.80
2022-08-11T17:43:27.621Z,58.66
2022-08-11T17:46:15.721Z,59.78
2022-08-11T17:48:48.224Z,59.36
2022-08-11T17:51:39.445Z,58.55
2022-08-11T17:54:28.358Z,58.25
2022-08-11T17:57:20.082Z,58.62
2022-08-11T17:59:56.381Z,59.08
2022-08-11T18:03:10.538Z,59.60
2022-08-11T18:05:43.588Z,60.05
2022-08-11T18:08:32.782Z,60.88
2022-08-11T18:12:06.264Z,60.75
2022-08-11T18:14:31.724Z,60.62
2022-08-11T18:17:18.780Z,61.08
2022-08-11T18:20:05.491Z,61.51
2022-08-11T18:22:56.767Z,61.72
2022-08-11T18:25:49.016Z,62.08
2022-08-11T18:28:42.509Z,62.26
2022-08-11T18:31:34.251Z,63.08
2022-08-11T18:34:26.179Z,63.00
2022-08-11T18:37:28.587Z,63.30
2022-08-11T18:40:20.562Z,63.63
2022-08-11T18:43:09.927Z,64.62
2022-08-11T18:46:06.757Z,65.53
2022-08-11T18:48:59.622Z,67.06
2022-08-11T18:51:47.286Z,68.65
2022-08-11T18:54:36.862Z,69.44
2022-08-11T18:57:24.981Z,70.56
2022-08-11T19:00:13.557Z,70.79
2022-08-11T19:03:04.383Z,71.13
2022-08-11T19:06:36.688Z,71.45
2022-08-11T19:09:11.110Z,71.90
2022-08-11T19:11:59.869Z,71.94
2022-08-11T19:14:49.387Z,72.45
2022-08-11T19:17:45.875Z,73.08
2022-08-11T19:20:41.149Z,73.38
2022-08-11T19:23:30.146Z,74.59
2022-08-11T19:26:19.379Z,75.29
2022-08-11T19:29:09.296Z,75.28
2022-08-11T19:32:17.751Z,76.00
2022-08-11T19:35:07.350Z,76.70
2022-08-11T19:37:58.195Z,77.46
2022-08-11T19:40:47.147Z,77.66
2022-08-11T19:43:36.390Z,78.01
2022-08-11T19:46:25.843Z,78.62
2022-08-11T19:49:14.927Z,78.68
2022-08-11T19:52:03.654Z,79.90
2022-08-11T19:54:53.065Z,79.88
2022-08-11T19:57:42.014Z,79.87
2022-08-11T20:00:34.051Z,80.46
2022-08-11T20:03:24.493Z,81.11
2022-08-11T20:06:11.696Z,82.11
2022-08-11T20:09:01.715Z,82.50
2022-08-11T20:11:53.677Z,83.40
2022-08-11T20:14:45.230Z,84.21
2022-08-11T20:17:33.254Z,84.93
2022-08-11T20:20:25.511Z,85.48
2022-08-11T20:23:19.367Z,86.10
2022-08-11T20:26:29.581Z,86.65
2022-08-11T20:29:17.374Z,87.19
2022-08-11T20:32:09.624Z,87.76
2022-08-11T20:35:02.780Z,88.39
2022-08-11T20:37:52.702Z,88.60
2022-08-11T20:40:42.648Z,89.23
2022-08-11T20:44:07.572Z,89.78
2022-08-11T20:46:41.629Z,90.19
2022-08-11T20:49:44.267Z,90.80
2022-08-11T20:52:40.759Z,91.36
2022-08-11T20:55:51.932Z,91.95
2022-08-11T20:59:11.015Z,92.06
2022-08-11T21:01:46.382Z,92.69
2022-08-11T21:04:33.281Z,92.85
2022-08-11T21:07:28.215Z,93.06
2022-08-11T21:10:23.250Z,93.54
2022-08-11T21:13:25.916Z,93.71
2022-08-11T21:16:26.138Z,94.29
2022-08-11T21:20:06.670Z,94.25
2022-08-11T21:22:37.030Z,94.73
2022-08-11T21:25:27.859Z,95.11
2022-08-11T21:28:22.278Z,94.90
2022-08-11T21:31:11.677Z,95.67
2022-08-11T21:33:59.580Z,95.76
2022-08-11T21:36:47.626Z,95.68
2022-08-11T21:39:38.362Z,95.66
2022-08-11T21:42:26.425Z,95.64
2022-08-11T21:45:15.403Z,95.28
2022-08-11T21:48:02.975Z,94.82
2022-08-11T21:50:49.995Z,94.52
2022-08-11T21:53:37.853Z,94.20
2022-08-11T21:56:27.585Z,94.10
2022-08-11T21:59:17.199Z,94.28
2022-08-11T22:02:12.352Z,94.57
2022-08-11T22:05:04.171Z,95.05
2022-08-11T22:07:51.206Z,95.57
2022-08-11T22:10:41.855Z,95.97
2022-08-11T22:13:31.724Z,96.27
2022-08-11T22:16:21.623Z,96.59
2022-08-11T22:19:10.099Z,96.73
2022-08-11T22:22:04.082Z,97.66
2022-08-11T22:24:53.016Z,98.20
2022-08-11T22:27:41.071Z,98.25
2022-08-11T22:30:29.562Z,98.33
2022-08-11T22:33:21.222Z,98.90
2022-08-11T22:36:14.481Z,99.18
2022-08-11T22:39:04.231Z,99.75
2022-08-11T22:41:51.468Z,100.00
2022-08-11T22:44:38.345Z,100.00
2022-08-11T22:47:28.632Z,100.00
2022-08-11T22:50:27.012Z,100.00
2022-08-11T22:53:18.166Z,100.00
2022-08-11T22:56:05.542Z,100.00
2022-08-11T22:58:54.150Z,100.00
2022-08-11T23:01:54.789Z,100.00
2022-08-11T23:04:44.376Z,100.00
2022-08-11T23:07:50.260Z,100.00
2022-08-11T23:10:40.030Z,100.00
2022-08-11T23:13:27.950Z,100.00
2022-08-11T23:16:15.906Z,100.00
2022-08-11T23:19:03.860Z,100.00
2022-08-11T23:21:52.571Z,100.00
2022-08-11T23:24:41.177Z,100.00
2022-08-11T23:27:29.294Z,100.00
2022-08-11T23:30:19.238Z,100.00
2022-08-11T23:33:10.182Z,100.00
2022-08-11T23:36:04.574Z,100.00
2022-08-11T23:38:53.037Z,100.00
2022-08-11T23:41:40.233Z,100.00
2022-08-11T23:44:27.620Z,100.00
2022-08-11T23:47:18.140Z,100.00
2022-08-11T23:50:06.720Z,100.00
2022-08-11T23:52:54.307Z,100.00
2022-08-11T23:55:41.250Z,100.00
2022-08-11T23:58:28.223Z,100.00
